Abbeville, Alabama
Current Conditions -  °F | °C
As of 1:53 AM on Saturday 25 Oct 2014 (Local Time) from KDHN Reporting Station
Clear Clear  
Wind Chill: 10°   Ceiling: Unl
Heat Index: 10°   Visibility: 10mi
Dew Point:   Wind: 5mph
Humidity: 86%   Direction: 320°NW
Pressure: 30.06"   Gusts: NA
Location:  31.57°N, 85.25°W
Report Text: KDHN 250653Z AUTO 32004KT 10SM CLR 10/08 A3006 RMK AO2 SLP178 T01000078
Loading
Personal Weather Stations






























Interactive Weather Map
Tropical Storm Tracking
New forecast layout! Learn more

10-Day Weather Forecast

Advertisements
Track Severe Weather on mobile